Time;durP1;ratioP1;P1;durP2;ratioP2;P2;SDS_P1;SDS_P2;PMS_P1;PMS_P2;Temp;Humidity;BMP_temperature;BMP_pressure;BME280_temperature;BME280_humidity;BME280_pressure;Samples;Min_cycle;Max_cycle;Signal;HPM_P1;HPM_P2
2022/08/25 00:01:40;;;;;;;19.42;15.75;;;;;;;19.37;100.00;96838.36;1714402;82;21073;-83
2022/08/25 00:04:09;;;;;;;25.15;15.95;;;;;;;19.39;100.00;96835.78;1716498;82;21026;-84
2022/08/25 00:06:38;;;;;;;25.80;14.95;;;;;;;19.43;100.00;96838.77;1717202;82;21008;-84
2022/08/25 00:09:04;;;;;;;19.65;14.30;;;;;;;19.44;100.00;96839.05;1720118;82;21342;-83
2022/08/25 00:11:32;;;;;;;16.42;13.55;;;;;;;19.43;100.00;96839.57;1720309;83;20948;-84
2022/08/25 00:14:02;;;;;;;22.35;14.98;;;;;;;19.47;100.00;96838.59;1719617;82;20960;-83
2022/08/25 00:16:30;;;;;;;21.95;13.10;;;;;;;19.52;100.00;96841.34;1720058;83;20952;-84
2022/08/25 00:18:58;;;;;;;18.65;13.38;;;;;;;19.56;100.00;96843.87;1719280;82;21347;-83
2022/08/25 00:21:24;;;;;;;21.00;15.53;;;;;;;19.42;100.00;96816.08;1722698;82;21039;-84
2022/08/25 00:23:51;;;;;;;25.40;15.80;;;;;;;19.59;100.00;96834.70;1744285;82;20993;-84
2022/08/25 00:26:17;;;;;;;20.95;13.45;;;;;;;19.60;100.00;96832.34;1743976;82;20947;-83
2022/08/25 00:28:43;;;;;;;16.40;11.93;;;;;;;19.63;100.00;96836.64;1743075;82;21391;-84
2022/08/25 00:31:16;;;;;;;15.48;12.65;;;;;;;19.67;100.00;96831.20;1743833;81;21055;-83
2022/08/25 00:33:43;;;;;;;14.70;12.35;;;;;;;19.64;100.00;96826.39;1744518;82;21017;-84
2022/08/25 00:36:11;;;;;;;15.68;12.10;;;;;;;19.70;100.00;96825.50;1740809;81;21410;-84
2022/08/25 00:38:39;;;;;;;17.10;12.43;;;;;;;19.72;100.00;96827.38;1743457;81;20973;-84
2022/08/25 00:41:06;;;;;;;16.95;12.30;;;;;;;19.75;100.00;96824.28;1706102;82;21047;-85
2022/08/25 00:43:48;;;;;;;18.48;11.78;;;;;;;19.83;100.00;96826.28;1739793;81;21006;-83
2022/08/25 00:46:20;;;;;;;16.87;12.65;;;;;;;19.86;100.00;96821.89;1744087;81;21034;-84
2022/08/25 00:48:49;;;;;;;19.42;12.20;;;;;;;19.87;100.00;96814.27;1739684;81;21021;-83
2022/08/25 00:51:31;;;;;;;17.57;10.75;;;;;;;19.87;100.00;96816.38;1743321;81;21034;-84
2022/08/25 00:53:57;;;;;;;15.50;8.78;;;;;;;19.89;100.00;96815.63;1741195;81;20978;-84
2022/08/25 00:56:23;;;;;;;16.15;9.28;;;;;;;19.93;100.00;96813.33;1743015;81;21034;-84
2022/08/25 00:58:49;;;;;;;20.95;9.30;;;;;;;19.96;100.00;96811.55;1741564;81;20967;-84
2022/08/25 01:01:15;;;;;;;18.05;10.03;;;;;;;19.97;100.00;96812.63;1743594;81;21046;-84
2022/08/25 01:03:41;;;;;;;19.02;8.55;;;;;;;19.94;100.00;96812.30;1740483;81;21030;-84
2022/08/25 01:06:08;;;;;;;15.78;8.48;;;;;;;19.95;100.00;96811.27;1735350;81;21380;-84
2022/08/25 01:08:34;;;;;;;18.92;10.58;;;;;;;19.94;100.00;96804.39;1710640;82;21370;-84
2022/08/25 01:11:02;;;;;;;22.20;11.70;;;;;;;19.94;100.00;96803.06;1729970;81;21015;-84
2022/08/25 01:13:36;;;;;;;19.90;11.30;;;;;;;19.93;100.00;96803.59;1739858;81;21015;-83
2022/08/25 01:16:02;;;;;;;19.20;12.40;;;;;;;19.93;100.00;96799.63;1710081;82;21348;-84
2022/08/25 01:18:28;;;;;;;22.60;12.00;;;;;;;19.92;100.00;96802.50;1732183;81;21054;-84
2022/08/25 01:20:56;;;;;;;17.35;10.70;;;;;;;19.93;100.00;96799.63;1714827;81;21417;-84
2022/08/25 01:23:21;;;;;;;13.10;9.78;;;;;;;19.95;100.00;96800.72;1712161;82;21070;-84
2022/08/25 01:25:52;;;;;;;18.55;10.15;;;;;;;19.93;100.00;96809.38;1742053;81;21068;-84
2022/08/25 01:28:19;;;;;;;17.05;11.15;;;;;;;19.94;100.00;96810.98;1741674;81;20999;-84
2022/08/25 01:30:44;;;;;;;19.95;10.90;;;;;;;19.93;100.00;96806.22;1722213;81;20964;-84
2022/08/25 01:33:10;;;;;;;16.20;10.82;;;;;;;19.94;100.00;96807.02;1741957;81;21425;-84
2022/08/25 01:35:36;;;;;;;18.48;11.83;;;;;;;19.93;100.00;96808.86;1742715;81;20978;-84
2022/08/25 01:38:03;;;;;;;15.85;9.60;;;;;;;19.93;100.00;96802.27;1741610;81;21342;-84
2022/08/25 01:40:29;;;;;;;22.85;11.60;;;;;;;19.94;100.00;96803.06;1735098;81;21015;-85
2022/08/25 01:43:12;;;;;;;16.97;13.00;;;;;;;19.93;100.00;96802.27;1737096;81;21003;-84
2022/08/25 01:45:40;;;;;;;15.75;12.63;;;;;;;19.91;100.00;96796.42;1742991;81;20976;-84
2022/08/25 01:48:06;;;;;;;26.70;11.90;;;;;;;19.89;100.00;96794.53;1743218;81;20963;-84
2022/08/25 01:50:32;;;;;;;23.45;11.60;;;;;;;19.86;100.00;96795.00;1741246;81;21014;-86
2022/08/25 01:53:18;;;;;;;20.00;10.75;;;;;;;19.84;100.00;96791.77;1708378;82;21060;-86
2022/08/25 01:56:00;;;;;;;17.98;10.90;;;;;;;19.79;100.00;96792.98;1717674;81;20990;-86
2022/08/25 01:58:27;;;;;;;16.35;11.95;;;;;;;19.74;100.00;96792.87;1701773;82;21038;-86
2022/08/25 02:00:55;;;;;;;19.37;12.30;;;;;;;19.70;100.00;96786.47;1741168;81;20929;-85
2022/08/25 02:03:22;;;;;;;16.67;12.73;;;;;;;19.68;100.00;96787.98;1750742;81;20945;-86
2022/08/25 02:05:47;;;;;;;16.48;12.85;;;;;;;19.64;100.00;96784.20;1738554;81;21337;-86
2022/08/25 02:08:14;;;;;;;18.10;13.18;;;;;;;19.61;100.00;96791.27;1708359;82;20975;-86
2022/08/25 02:10:39;;;;;;;17.87;13.15;;;;;;;19.58;100.00;96789.09;1736003;81;21057;-85
2022/08/25 02:13:06;;;;;;;17.82;11.65;;;;;;;19.59;100.00;96791.20;1739571;81;21661;-86
2022/08/25 02:15:32;;;;;;;15.45;11.43;;;;;;;19.59;100.00;96793.84;1740512;81;20978;-86
2022/08/25 02:17:58;;;;;;;16.32;12.03;;;;;;;19.57;100.00;96790.64;1742723;81;21036;-86
2022/08/25 02:20:24;;;;;;;12.82;11.38;;;;;;;19.56;100.00;96791.67;1736912;81;20967;-86
2022/08/25 02:22:52;;;;;;;11.78;10.58;;;;;;;19.55;100.00;96788.75;1733643;81;21495;-86
2022/08/25 02:25:18;;;;;;;15.32;10.10;;;;;;;19.55;100.00;96790.87;1737765;81;20961;-87
2022/08/25 02:27:45;;;;;;;12.90;10.48;;;;;;;19.53;100.00;96781.05;1732265;81;20973;-85
2022/08/25 02:30:13;;;;;;;17.77;11.68;;;;;;;19.49;100.00;96780.67;1744750;81;20950;-86
2022/08/25 02:32:39;;;;;;;13.28;11.40;;;;;;;19.44;100.00;96779.24;1729174;82;21007;-86
2022/08/25 02:35:06;;;;;;;14.75;10.43;;;;;;;19.43;100.00;96777.64;1743514;81;22043;-86
2022/08/25 02:37:32;;;;;;;10.90;9.83;;;;;;;19.41;100.00;96782.34;1751016;81;21024;-85
2022/08/25 02:39:58;;;;;;;15.50;10.03;;;;;;;19.38;100.00;96782.00;1745347;80;21355;-86
2022/08/25 02:42:25;;;;;;;15.00;10.50;;;;;;;19.33;100.00;96783.98;1740447;81;21347;-87
2022/08/25 02:44:51;;;;;;;15.00;9.38;;;;;;;19.32;100.00;96788.16;1736370;81;21047;-86
2022/08/25 02:47:16;;;;;;;12.93;10.05;;;;;;;19.29;100.00;96785.47;1742159;81;21008;-86
2022/08/25 02:49:43;;;;;;;11.53;10.38;;;;;;;19.28;100.00;96793.59;1714747;82;20989;-86
2022/08/25 02:52:09;;;;;;;15.45;11.38;;;;;;;19.26;100.00;96789.08;1731962;81;21144;-86
2022/08/25 02:54:35;;;;;;;15.43;10.48;;;;;;;19.18;100.00;96785.72;1737113;81;21351;-86
2022/08/25 02:57:01;;;;;;;15.25;9.73;;;;;;;19.18;100.00;96785.72;1744009;81;20944;-86
2022/08/25 02:59:27;;;;;;;11.43;9.10;;;;;;;19.23;100.00;96794.28;1748504;82;20922;-86
2022/08/25 03:01:52;;;;;;;12.43;10.60;;;;;;;19.25;100.00;96787.47;1732661;81;20920;-86
2022/08/25 03:04:18;;;;;;;12.43;10.60;;;;;;;19.26;100.00;96781.17;1717975;82;21037;-85
2022/08/25 03:06:44;;;;;;;16.80;11.40;;;;;;;19.27;100.00;96776.19;1700588;82;21371;-86
2022/08/25 03:09:10;;;;;;;18.27;11.48;;;;;;;19.27;100.00;96780.14;1734314;81;21047;-86
2022/08/25 03:11:37;;;;;;;13.68;12.23;;;;;;;19.25;100.00;96782.20;1745436;81;21013;-85
2022/08/25 03:14:07;;;;;;;15.35;10.93;;;;;;;19.23;100.00;96777.67;1744644;81;21033;-86
2022/08/25 03:16:32;;;;;;;11.83;10.63;;;;;;;19.22;100.00;96777.39;1752382;81;21036;-85
2022/08/25 03:18:58;;;;;;;12.95;11.15;;;;;;;19.22;100.00;96781.34;1722250;81;21044;-86
2022/08/25 03:21:27;;;;;;;11.95;10.75;;;;;;;19.20;100.00;96776.30;1747628;81;21008;-85
2022/08/25 03:23:54;;;;;;;12.53;10.28;;;;;;;19.17;100.00;96784.12;1748544;81;21059;-85
2022/08/25 03:29:04;;;;;;;9.78;8.65;;;;;;;19.12;100.00;96785.83;1738539;81;21552;-86
2022/08/25 03:31:31;;;;;;;11.33;9.23;;;;;;;19.08;100.00;96784.69;1739777;81;20928;-86
2022/08/25 03:33:58;;;;;;;13.10;8.00;;;;;;;19.05;100.00;96791.21;1737754;81;21043;-86
2022/08/25 03:36:24;;;;;;;10.53;7.92;;;;;;;19.03;100.00;96794.55;1743112;81;21015;-86
2022/08/25 03:38:51;;;;;;;11.78;8.73;;;;;;;18.99;100.00;96789.97;1738384;81;21003;-85
2022/08/25 03:41:23;;;;;;;11.15;8.03;;;;;;;18.95;100.00;96780.41;1702993;82;21014;-87
2022/08/25 03:43:49;;;;;;;12.65;8.95;;;;;;;18.91;100.00;96780.58;1695202;82;21023;-86
2022/08/25 03:46:26;;;;;;;9.93;7.65;;;;;;;18.88;100.00;96778.39;1698565;82;21010;-86
2022/08/25 03:48:52;;;;;;;15.13;7.75;;;;;;;18.84;100.00;96780.65;1706357;82;20963;-86
2022/08/25 03:51:25;;;;;;;17.75;8.35;;;;;;;18.81;100.00;96779.78;1705728;82;21039;-86
2022/08/25 03:53:51;;;;;;;11.57;6.97;;;;;;;18.81;100.00;96782.94;1698210;82;21507;-85
2022/08/25 03:56:17;;;;;;;16.32;7.65;;;;;;;18.78;100.00;96780.75;1703810;82;21073;-86
2022/08/25 03:58:42;;;;;;;13.30;7.72;;;;;;;18.75;100.00;96779.38;1705641;82;21078;-85
2022/08/25 04:01:08;;;;;;;12.73;7.58;;;;;;;18.74;100.00;96777.77;1707647;82;21369;-85
2022/08/25 04:03:35;;;;;;;11.48;5.72;;;;;;;18.73;100.00;96782.75;1706375;82;20980;-86
2022/08/25 04:06:05;;;;;;;13.72;6.62;;;;;;;18.71;100.00;96782.17;1705306;83;20999;-86
2022/08/25 04:08:30;;;;;;;15.85;6.53;;;;;;;18.69;100.00;96780.25;1693231;82;21365;-86
2022/08/25 04:10:56;;;;;;;14.43;6.53;;;;;;;18.68;100.00;96780.47;1699756;82;20994;-86
2022/08/25 04:13:22;;;;;;;13.83;6.72;;;;;;;18.70;100.00;96782.36;1697222;83;20951;-85
2022/08/25 04:15:47;;;;;;;12.95;5.70;;;;;;;18.72;100.00;96782.97;1704698;82;20972;-86
2022/08/25 04:18:13;;;;;;;16.37;6.47;;;;;;;18.73;100.00;96780.11;1695279;83;20993;-85
2022/08/25 04:20:41;;;;;;;15.03;6.47;;;;;;;18.73;100.00;96781.95;1701993;82;20944;-86
2022/08/25 04:23:08;;;;;;;11.75;6.22;;;;;;;18.76;100.00;96777.55;1714304;82;22121;-85
2022/08/25 04:25:35;;;;;;;12.75;6.35;;;;;;;18.80;100.00;96776.06;1721815;82;21390;-86
2022/08/25 04:28:01;;;;;;;13.60;6.47;;;;;;;18.84;100.00;96778.02;1725650;82;21382;-86
2022/08/25 04:30:26;;;;;;;13.78;8.15;;;;;;;18.88;100.00;96775.77;1721896;82;20971;-85
2022/08/25 04:32:52;;;;;;;12.50;6.37;;;;;;;18.91;100.00;96777.14;1704135;82;20992;-86
2022/08/25 04:35:18;;;;;;;18.17;9.33;;;;;;;18.91;100.00;96780.58;1723805;82;21347;-86
2022/08/25 04:37:46;;;;;;;14.95;8.25;;;;;;;18.93;100.00;96779.03;1707873;82;20998;-85
2022/08/25 04:40:12;;;;;;;15.83;7.17;;;;;;;18.96;100.00;96779.89;1724555;81;20996;-86
2022/08/25 04:42:38;;;;;;;13.45;6.85;;;;;;;18.98;100.00;96783.91;1708486;82;21346;-86
2022/08/25 04:45:05;;;;;;;17.30;7.72;;;;;;;18.98;100.00;96783.91;1708131;82;20963;-86
2022/08/25 04:47:34;;;;;;;21.60;10.45;;;;;;;19.00;100.00;96779.72;1708463;82;20959;-86
2022/08/25 04:49:59;;;;;;;17.70;12.33;;;;;;;19.01;100.00;96778.18;1681568;84;21055;-86
2022/08/25 04:52:25;;;;;;;22.50;12.98;;;;;;;19.04;100.00;96779.59;1723405;82;21592;-86
2022/08/25 04:54:51;;;;;;;20.12;14.18;;;;;;;19.08;100.00;96778.91;1708885;82;20932;-87
2022/08/25 04:57:16;;;;;;;15.50;13.15;;;;;;;19.11;100.00;96778.45;1723634;82;21311;-86
2022/08/25 04:59:42;;;;;;;31.33;13.03;;;;;;;19.14;100.00;96779.30;1710781;82;21492;-86
2022/08/25 05:02:08;;;;;;;16.37;12.70;;;;;;;19.16;100.00;96779.08;1716484;82;21026;-86
2022/08/25 05:04:35;;;;;;;18.05;12.37;;;;;;;19.19;100.00;96779.42;1725898;82;22209;-86
2022/08/25 05:07:01;;;;;;;19.98;13.45;;;;;;;19.23;100.00;96783.75;1709071;82;21001;-86
2022/08/25 05:09:27;;;;;;;19.62;14.18;;;;;;;19.23;100.00;96779.80;1723803;81;20963;-86
2022/08/25 05:11:53;;;;;;;17.23;13.43;;;;;;;19.24;100.00;96780.59;1708347;82;21369;-85
2022/08/25 05:14:21;;;;;;;16.05;10.45;;;;;;;19.26;100.00;96778.02;1693061;83;21139;-84
2022/08/25 05:16:47;;;;;;;16.20;13.48;;;;;;;19.26;100.00;96777.22;1704665;82;21394;-84
2022/08/25 05:19:13;;;;;;;28.15;14.30;;;;;;;19.27;100.00;96774.87;1711530;84;21003;-84
2022/08/25 05:21:39;;;;;;;20.10;14.75;;;;;;;19.29;100.00;96774.92;1723945;82;20951;-84
2022/08/25 05:24:06;;;;;;;22.70;14.47;;;;;;;19.31;100.00;96775.50;1724682;82;21023;-85
2022/08/25 05:26:35;;;;;;;25.30;15.35;;;;;;;19.33;100.00;96775.27;1726970;82;21038;-85
2022/08/25 05:29:03;;;;;;;26.07;13.90;;;;;;;19.32;100.00;96782.89;1726339;81;21326;-84
2022/08/25 05:31:29;;;;;;;23.00;16.17;;;;;;;19.32;100.00;96786.84;1726018;81;20952;-84
2022/08/25 05:33:55;;;;;;;17.45;14.15;;;;;;;19.33;100.00;96777.91;1723062;82;21327;-84
2022/08/25 05:36:21;;;;;;;22.95;14.58;;;;;;;19.34;100.00;96779.50;1710491;82;21018;-84
2022/08/25 05:38:46;;;;;;;19.70;14.13;;;;;;;19.33;100.00;96775.27;1708805;82;20991;-84
2022/08/25 05:41:17;;;;;;;22.13;13.75;;;;;;;19.37;100.00;96781.71;1721877;81;20955;-83
2022/08/25 05:43:44;;;;;;;21.70;15.10;;;;;;;19.39;100.00;96776.50;1683310;83;20941;-84
2022/08/25 05:46:11;;;;;;;26.77;15.78;;;;;;;19.40;100.00;96782.05;1709020;82;21409;-84
2022/08/25 05:48:36;;;;;;;20.12;14.73;;;;;;;19.43;100.00;96775.52;1722929;82;21008;-84
2022/08/25 05:51:05;;;;;;;23.57;13.62;;;;;;;19.46;100.00;96773.74;1710462;82;21075;-84
2022/08/25 05:53:31;;;;;;;27.73;15.43;;;;;;;19.45;100.00;96768.98;1721590;82;21548;-84
2022/08/25 05:55:58;;;;;;;25.08;15.10;;;;;;;19.45;100.00;96770.82;1691810;83;21040;-84
2022/08/25 05:58:26;;;;;;;26.82;16.50;;;;;;;19.48;100.00;96774.31;1692607;83;21026;-83
2022/08/25 06:00:52;;;;;;;28.12;16.07;;;;;;;19.54;100.00;96769.98;1706022;82;21047;-84
2022/08/25 06:03:18;;;;;;;22.40;16.30;;;;;;;19.56;100.00;96776.66;1724449;81;21066;-84
2022/08/25 06:05:44;;;;;;;23.42;14.90;;;;;;;19.59;100.00;96776.71;1723108;82;20947;-85
2022/08/25 06:08:09;;;;;;;35.03;17.10;;;;;;;19.61;100.00;96782.03;1725485;82;21016;-84
2022/08/25 06:10:35;;;;;;;22.55;15.50;;;;;;;19.63;100.00;96779.17;1709097;82;20955;-85
2022/08/25 06:13:01;;;;;;;24.23;14.63;;;;;;;19.61;100.00;96783.35;1705911;82;20923;-84
2022/08/25 06:15:27;;;;;;;24.18;15.83;;;;;;;19.64;100.00;96778.94;1724417;82;21007;-85
2022/08/25 06:17:53;;;;;;;26.90;15.70;;;;;;;19.65;100.00;96781.86;1720959;82;21058;-84
2022/08/25 06:20:26;;;;;;;27.45;16.55;;;;;;;19.69;100.00;96779.59;1712588;84;20943;-84
2022/08/25 06:22:53;;;;;;;23.92;14.95;;;;;;;19.72;100.00;96777.29;1716072;82;21030;-84
2022/08/25 06:25:22;;;;;;;22.42;13.93;;;;;;;19.73;100.00;96776.25;1716976;81;20940;-84
2022/08/25 06:27:49;;;;;;;24.50;15.88;;;;;;;19.76;100.00;96778.95;1730948;81;20951;-84
2022/08/25 06:30:18;;;;;;;20.82;15.15;;;;;;;19.78;100.00;96776.36;1730629;81;21007;-84
2022/08/25 06:32:44;;;;;;;26.75;16.55;;;;;;;19.84;100.00;96780.42;1708170;82;20966;-84
2022/08/25 06:35:14;;;;;;;25.75;16.85;;;;;;;19.88;100.00;96785.54;1715785;82;20981;-84
2022/08/25 06:37:41;;;;;;;22.62;15.32;;;;;;;19.92;100.00;96786.16;1698584;83;21378;-84
2022/08/25 06:40:07;;;;;;;23.05;14.15;;;;;;;19.94;100.00;96780.65;1730989;81;20962;-84
2022/08/25 06:42:33;;;;;;;33.85;15.83;;;;;;;19.98;100.00;96785.23;1731403;81;21348;-83
2022/08/25 06:45:00;;;;;;;26.80;17.00;;;;;;;20.01;100.00;96779.52;1719577;82;21291;-84
2022/08/25 06:47:26;;;;;;;24.10;14.35;;;;;;;20.03;100.00;96785.88;1720203;83;20952;-84
2022/08/25 06:49:51;;;;;;;24.10;14.80;;;;;;;20.06;100.00;96782.25;1704815;82;20968;-85
2022/08/25 06:52:17;;;;;;;21.73;15.10;;;;;;;20.10;100.00;96786.53;1713859;82;21327;-84
2022/08/25 06:54:43;;;;;;;21.57;14.70;;;;;;;20.11;100.00;96778.91;1732245;81;21497;-84
2022/08/25 06:57:09;;;;;;;20.75;15.13;;;;;;;20.18;100.00;96788.84;1742196;81;21060;-84
2022/08/25 06:59:35;;;;;;;25.90;15.65;;;;;;;20.24;100.00;96787.09;1731016;82;20998;-84
2022/08/25 07:02:03;;;;;;;22.05;14.50;;;;;;;20.25;100.00;96792.13;1702486;83;21414;-85
2022/08/25 07:04:29;;;;;;;21.10;14.98;;;;;;;20.25;100.00;96786.05;1739647;81;20936;-84
2022/08/25 07:06:54;;;;;;;26.52;16.00;;;;;;;20.28;100.00;96788.22;1722130;83;20960;-84
2022/08/25 07:09:20;;;;;;;26.33;15.78;;;;;;;20.30;100.00;96790.11;1730230;81;21370;-84
2022/08/25 07:11:46;;;;;;;33.42;16.42;;;;;;;20.31;100.00;96793.83;1719276;83;20951;-84
2022/08/25 07:14:15;;;;;;;26.10;17.20;;;;;;;20.33;100.00;96790.44;1730503;81;20963;-85
2022/08/25 07:16:41;;;;;;;24.92;16.00;;;;;;;20.33;100.00;96787.80;1729366;81;20955;-84
2022/08/25 07:19:07;;;;;;;28.30;17.05;;;;;;;20.28;100.00;96790.34;1730038;81;20998;-84
2022/08/25 07:21:35;;;;;;;26.40;16.55;;;;;;;20.24;100.00;96789.22;1730364;82;20975;-84
2022/08/25 07:24:06;;;;;;;28.45;17.62;;;;;;;20.26;100.00;96791.62;1732250;81;21034;-85
2022/08/25 07:26:35;;;;;;;28.57;20.23;;;;;;;20.29;100.00;96789.30;1730513;83;21062;-85
2022/08/25 07:29:04;;;;;;;32.80;21.52;;;;;;;20.26;100.00;96789.78;1737605;82;21424;-84
2022/08/25 07:31:30;;;;;;;41.23;25.40;;;;;;;20.18;100.00;96784.87;1745085;81;20996;-84
2022/08/25 07:36:41;;;;;;;33.60;21.35;;;;;;;20.27;100.00;96794.53;1703284;83;21355;-84
2022/08/25 07:39:07;;;;;;;32.15;22.02;;;;;;;20.36;100.00;96795.27;1702881;82;20984;-84
2022/08/25 07:41:36;;;;;;;30.23;21.35;;;;;;;20.46;100.00;96797.84;1706779;82;20974;-84
2022/08/25 07:44:04;;;;;;;33.85;23.10;;;;;;;20.55;100.00;96797.78;1714607;82;21891;-84
2022/08/25 07:46:30;;;;;;;34.70;23.40;;;;;;;20.64;100.00;96795.03;1711656;82;21044;-84
2022/08/25 07:48:56;;;;;;;37.40;23.83;;;;;;;20.63;100.00;96799.52;1718074;82;21063;-84
2022/08/25 07:51:21;;;;;;;32.00;24.40;;;;;;;20.64;100.00;96799.80;1716198;82;20991;-84
2022/08/25 07:53:47;;;;;;;38.88;24.45;;;;;;;20.67;100.00;96798.55;1711936;83;21034;-86
2022/08/25 07:56:15;;;;;;;31.75;24.23;;;;;;;20.64;100.00;96793.70;1719735;82;21394;-85
2022/08/25 07:58:41;;;;;;;40.65;26.77;;;;;;;20.67;100.00;96794.58;1713590;82;21039;-85
2022/08/25 08:01:09;;;;;;;37.67;25.08;;;;;;;20.72;100.00;96789.91;1685736;82;21098;-84
2022/08/25 08:03:35;;;;;;;35.68;26.12;;;;;;;20.76;100.00;96785.75;1679967;83;20991;-84
2022/08/25 08:06:00;;;;;;;37.03;26.75;;;;;;;20.79;100.00;96789.23;1719554;82;21047;-84
2022/08/25 08:08:27;;;;;;;38.40;27.27;;;;;;;20.76;100.00;96790.52;1685871;83;21397;-84
2022/08/25 08:10:53;;;;;;;36.58;25.90;;;;;;;20.76;100.00;96786.55;1716729;82;20976;-84
2022/08/25 08:13:19;;;;;;;36.65;26.42;;;;;;;20.82;100.00;96792.20;1720043;82;20987;-84
2022/08/25 08:15:45;;;;;;;41.23;27.95;;;;;;;20.85;100.00;96787.79;1718718;83;21355;-83
2022/08/25 08:18:10;;;;;;;35.65;26.02;;;;;;;20.88;100.00;96792.59;1719726;82;21112;-84
2022/08/25 08:20:36;;;;;;;37.10;25.70;;;;;;;20.89;100.00;96789.44;1718097;83;20980;-85
2022/08/25 08:23:02;;;;;;;32.98;24.00;;;;;;;20.94;100.00;96789.00;1718972;83;21039;-85
2022/08/25 08:25:29;;;;;;;36.28;26.15;;;;;;;20.94;100.00;96794.80;1720247;82;20956;-85
2022/08/25 08:27:55;;;;;;;38.40;29.45;;;;;;;20.89;100.00;96793.39;1720023;82;21015;-85
2022/08/25 08:30:21;;;;;;;45.95;31.48;;;;;;;20.94;100.00;96789.00;1719730;83;21402;-86
2022/08/25 08:32:48;;;;;;;44.13;29.40;;;;;;;20.96;100.00;96786.91;1719571;82;20956;-84
2022/08/25 08:35:17;;;;;;;43.15;30.12;;;;;;;21.02;100.00;96793.63;1738221;81;21048;-85
2022/08/25 08:37:45;;;;;;;37.93;28.75;;;;;;;21.02;100.00;96789.66;1757880;81;21000;-85
2022/08/25 08:40:13;;;;;;;44.13;31.40;;;;;;;21.05;100.00;96789.19;1706812;83;20960;-87
2022/08/25 08:43:05;;;;;;;48.45;32.40;;;;;;;21.08;100.00;96796.62;1719517;82;20944;-84
2022/08/25 08:45:43;;;;;;;;;;;;;;;21.07;100.00;96793.19;1722491;82;20995;-85
2022/08/25 08:48:31;;;;;;;39.70;28.23;;;;;;;21.14;100.00;96797.79;1718461;82;20156;-86
2022/08/25 08:51:08;;;;;;;33.90;26.55;;;;;;;21.19;100.00;96794.45;1716690;82;20992;-85
2022/08/25 08:54:09;;;;;;;37.35;24.92;;;;;;;21.22;100.00;96791.33;1729879;81;21414;-86
2022/08/25 08:56:42;;;;;;;31.42;22.90;;;;;;;21.27;100.00;96791.44;1739528;81;21174;-86
2022/08/25 08:59:17;;;;;;;36.38;25.35;;;;;;;21.34;100.00;96788.66;1738867;81;20996;-85
2022/08/25 09:01:58;;;;;;;33.10;24.75;;;;;;;21.40;100.00;96788.48;1700155;83;20983;-85
2022/08/25 09:04:43;;;;;;;35.95;23.83;;;;;;;21.49;100.00;96789.70;1713533;82;21643;-85
2022/08/25 09:07:22;;;;;;;31.70;21.07;;;;;;;21.49;100.00;96787.05;1697566;83;21026;-86
2022/08/25 09:09:49;;;;;;;31.97;23.00;;;;;;;21.52;100.00;96787.09;1718801;81;20987;-85
2022/08/25 09:12:43;;;;;;;33.65;24.07;;;;;;;21.57;100.00;96787.95;1728734;83;21074;-85
2022/08/25 09:16:53;;;;;;;29.55;21.05;;;;;;;21.63;100.00;96790.14;1734820;81;20971;-86
2022/08/25 09:18:12;;;;;;;31.20;21.48;;;;;;;21.64;100.00;96797.06;1707100;81;21035;-86
2022/08/25 09:20:49;;;;;;;32.75;19.70;;;;;;;21.61;100.00;96799.37;1729605;81;21019;-85
2022/08/25 09:23:43;;;;;;;30.72;21.50;;;;;;;21.64;100.00;96797.56;1729843;83;21027;-86
2022/08/25 09:26:28;;;;;;;30.12;22.80;;;;;;;21.67;100.00;96801.87;1707790;82;20967;-86
2022/08/25 09:29:08;;;;;;;35.00;20.95;;;;;;;21.72;100.00;96790.55;1730509;83;21039;-86
2022/08/25 09:31:38;;;;;;;31.90;21.15;;;;;;;21.71;100.00;96791.08;1728406;81;21013;-83
2022/08/25 09:34:11;;;;;;;29.45;19.55;;;;;;;21.68;100.00;96786.80;1675363;83;20991;-83
2022/08/25 09:36:37;;;;;;;24.32;18.48;;;;;;;21.71;100.00;96787.11;1717158;82;21029;-83
2022/08/25 09:39:05;;;;;;;32.40;19.42;;;;;;;21.72;100.00;96782.63;1741677;81;21053;-83
2022/08/25 09:41:45;;;;;;;27.52;18.15;;;;;;;21.81;100.00;96787.27;1729879;81;20995;-83
2022/08/25 09:44:29;;;;;;;28.90;18.75;;;;;;;21.88;100.00;96785.24;1730553;81;21114;-83
2022/08/25 09:47:00;;;;;;;30.97;17.45;;;;;;;21.84;100.00;96784.13;1716424;82;21407;-83
2022/08/25 09:49:53;;;;;;;28.12;16.10;;;;;;;21.93;100.00;96786.34;1696905;83;21046;-83
2022/08/25 09:52:33;;;;;;;28.60;16.10;;;;;;;22.04;100.00;96785.45;1721534;81;20980;-83
2022/08/25 09:55:06;;;;;;;28.02;19.05;;;;;;;;;;1716687;82;21382;-83
2022/08/25 09:57:45;;;;;;;24.98;15.70;;;;;;;22.20;100.00;96779.87;1700498;82;20983;-83
2022/08/25 10:00:20;;;;;;;26.07;15.35;;;;;;;22.28;100.00;96773.61;1722951;81;21383;-83
2022/08/25 10:03:10;;;;;;;26.37;14.93;;;;;;;22.40;100.00;96770.31;1732039;81;21047;-84
2022/08/25 10:05:57;;;;;;;27.17;15.93;;;;;;;22.51;100.00;96773.09;1734991;81;21079;-83
2022/08/25 10:08:46;;;;;;;36.63;15.80;;;;;;;22.61;100.00;96773.19;1719914;81;20996;-83
2022/08/25 10:11:14;;;;;;;27.90;15.00;;;;;;;22.58;100.00;96769.72;1732336;81;20957;-83
2022/08/25 10:13:49;;;;;;;26.82;14.78;;;;;;;22.58;100.00;96767.88;1731158;81;20960;-84
2022/08/25 10:16:30;;;;;;;24.18;14.83;;;;;;;22.64;100.00;96758.95;1730148;81;21111;-84
2022/08/25 10:19:12;;;;;;;27.87;14.47;;;;;;;22.74;100.00;96760.36;1725071;81;20949;-84
2022/08/25 10:21:41;;;;;;;25.37;13.75;;;;;;;22.87;100.00;96755.75;1714431;81;21401;-83
2022/08/25 10:24:10;;;;;;;33.95;14.55;;;;;;;22.94;100.00;96753.69;1734717;81;21090;-83
2022/08/25 10:27:11;;;;;;;24.05;15.15;;;;;;;22.97;100.00;96748.70;1736676;81;21024;-84
2022/08/25 10:30:04;;;;;;;27.10;13.48;;;;;;;23.08;100.00;96746.93;1734648;81;21091;-84
2022/08/25 10:33:12;;;;;;;25.85;13.10;;;;;;;23.21;100.00;96741.74;1730932;81;21020;-84
2022/08/25 10:35:56;;;;;;;28.15;13.13;;;;;;;23.29;100.00;96741.29;1728166;81;21000;-84
2022/08/25 10:38:46;;;;;;;27.00;13.90;;;;;;;23.35;100.00;96738.41;1648295;83;21022;-83
2022/08/25 10:41:51;;;;;;;22.10;12.78;;;;;;;23.43;100.00;96737.66;1729380;81;20985;-83
2022/08/25 10:47:51;;;;;;;27.85;14.33;;;;;;;23.55;100.00;96732.45;1720762;81;21036;-84
2022/08/25 10:50:25;;;;;;;24.52;13.18;;;;;;;23.66;100.00;96734.67;1714453;82;20950;-84
2022/08/25 10:53:08;;;;;;;18.80;12.90;;;;;;;23.77;100.00;96729.71;1712266;81;21045;-84
2022/08/25 10:56:03;;;;;;;27.05;13.35;;;;;;;23.86;100.00;96726.83;1729018;81;21079;-84
2022/08/25 10:58:58;;;;;;;25.57;12.40;;;;;;;23.89;100.00;96724.98;1738183;81;21016;-84
2022/08/25 11:01:56;;;;;;;21.50;12.23;;;;;;;23.93;99.42;96722.63;1721934;81;21072;-84
2022/08/25 11:04:27;;;;;;;25.85;12.20;;;;;;;24.02;100.00;96714.42;1727801;82;21416;-84
2022/08/25 11:07:04;;;;;;;25.80;11.55;;;;;;;24.12;99.54;96720.32;1680941;82;20984;-83
2022/08/25 11:09:35;;;;;;;24.05;10.65;;;;;;;24.24;99.97;96718.22;1721727;81;21095;-84
2022/08/25 11:12:11;;;;;;;26.12;12.25;;;;;;;24.34;96.60;96720.16;1714642;81;20984;-84
2022/08/25 11:14:58;;;;;;;24.77;10.95;;;;;;;24.44;94.67;96702.41;1722460;81;21430;-83
2022/08/25 11:17:29;;;;;;;25.85;11.15;;;;;;;24.44;94.67;96702.41;1719645;82;21008;-84
2022/08/25 11:20:00;;;;;;;20.50;10.45;;;;;;;24.56;98.91;96707.45;1726083;81;21004;-83
2022/08/25 11:22:36;;;;;;;22.52;9.05;;;;;;;24.60;97.74;96705.09;1731546;81;20988;-84
2022/08/25 11:25:29;;;;;;;20.77;9.18;;;;;;;24.58;92.83;96705.36;1678117;82;21102;-84
2022/08/25 11:28:30;;;;;;;26.77;9.38;;;;;;;24.62;92.17;96708.28;1674178;84;21048;-83
2022/08/25 11:30:58;;;;;;;27.67;10.63;;;;;;;24.73;91.83;96706.72;1673545;84;20976;-84
2022/08/25 11:33:25;;;;;;;17.73;8.35;;;;;;;24.85;96.00;96705.12;1658979;84;20963;-85
2022/08/25 11:36:20;;;;;;;19.67;9.03;;;;;;;24.91;92.89;96694.78;1671962;83;21355;-83